sensor_id;sensor_type;location;lat;lon;timestamp;P1;durP1;ratioP1;P2;durP2;ratioP2
9330;SDS011;4704;50.470;12.072;2023-02-15T00:01:21;3.60;;;3.30;;
9330;SDS011;4704;50.470;12.072;2023-02-15T00:03:49;3.78;;;3.47;;
9330;SDS011;4704;50.470;12.072;2023-02-15T00:06:17;3.15;;;2.90;;
9330;SDS011;4704;50.470;12.072;2023-02-15T00:08:45;3.50;;;3.20;;
9330;SDS011;4704;50.470;12.072;2023-02-15T00:11:13;3.40;;;3.10;;
9330;SDS011;4704;50.470;12.072;2023-02-15T00:13:43;3.63;;;3.33;;
9330;SDS011;4704;50.470;12.072;2023-02-15T00:16:11;3.40;;;3.10;;
9330;SDS011;4704;50.470;12.072;2023-02-15T00:18:39;3.53;;;3.22;;
9330;SDS011;4704;50.470;12.072;2023-02-15T00:21:08;3.47;;;3.28;;
9330;SDS011;4704;50.470;12.072;2023-02-15T00:23:36;3.30;;;3.00;;
9330;SDS011;4704;50.470;12.072;2023-02-15T00:26:05;3.60;;;3.30;;
9330;SDS011;4704;50.470;12.072;2023-02-15T00:28:33;3.50;;;3.20;;
9330;SDS011;4704;50.470;12.072;2023-02-15T00:31:07;3.45;;;3.15;;
9330;SDS011;4704;50.470;12.072;2023-02-15T00:33:35;3.22;;;3.03;;
9330;SDS011;4704;50.470;12.072;2023-02-15T00:36:03;3.63;;;3.33;;
9330;SDS011;4704;50.470;12.072;2023-02-15T00:38:31;4.22;;;3.60;;
9330;SDS011;4704;50.470;12.072;2023-02-15T00:41:00;3.53;;;3.22;;
9330;SDS011;4704;50.470;12.072;2023-02-15T00:43:29;3.67;;;3.38;;
9330;SDS011;4704;50.470;12.072;2023-02-15T00:45:57;3.05;;;2.85;;
9330;SDS011;4704;50.470;12.072;2023-02-15T00:48:27;3.50;;;3.20;;
9330;SDS011;4704;50.470;12.072;2023-02-15T00:50:55;3.42;;;3.20;;
9330;SDS011;4704;50.470;12.072;2023-02-15T00:53:23;3.40;;;3.10;;
9330;SDS011;4704;50.470;12.072;2023-02-15T00:55:51;3.40;;;3.20;;
9330;SDS011;4704;50.470;12.072;2023-02-15T00:58:19;3.50;;;3.20;;
9330;SDS011;4704;50.470;12.072;2023-02-15T01:00:47;3.47;;;3.17;;
9330;SDS011;4704;50.470;12.072;2023-02-15T01:03:15;3.60;;;3.30;;
9330;SDS011;4704;50.470;12.072;2023-02-15T01:05:45;3.53;;;3.22;;
9330;SDS011;4704;50.470;12.072;2023-02-15T01:08:14;3.35;;;3.05;;
9330;SDS011;4704;50.470;12.072;2023-02-15T01:10:42;3.58;;;3.28;;
9330;SDS011;4704;50.470;12.072;2023-02-15T01:13:13;3.63;;;3.33;;
9330;SDS011;4704;50.470;12.072;2023-02-15T01:15:41;3.50;;;3.20;;
9330;SDS011;4704;50.470;12.072;2023-02-15T01:18:09;3.50;;;3.20;;
9330;SDS011;4704;50.470;12.072;2023-02-15T01:20:38;3.45;;;3.15;;
9330;SDS011;4704;50.470;12.072;2023-02-15T01:23:08;3.38;;;3.17;;
9330;SDS011;4704;50.470;12.072;2023-02-15T01:25:36;3.33;;;3.03;;
9330;SDS011;4704;50.470;12.072;2023-02-15T01:28:04;3.53;;;3.22;;
9330;SDS011;4704;50.470;12.072;2023-02-15T01:30:32;3.75;;;3.45;;
9330;SDS011;4704;50.470;12.072;2023-02-15T01:33:00;3.35;;;3.00;;
9330;SDS011;4704;50.470;12.072;2023-02-15T01:35:28;3.70;;;3.40;;
9330;SDS011;4704;50.470;12.072;2023-02-15T01:37:56;3.08;;;2.88;;
9330;SDS011;4704;50.470;12.072;2023-02-15T01:40:25;3.20;;;3.00;;
9330;SDS011;4704;50.470;12.072;2023-02-15T01:42:54;3.15;;;2.95;;
9330;SDS011;4704;50.470;12.072;2023-02-15T01:45:23;2.97;;;2.60;;
9330;SDS011;4704;50.470;12.072;2023-02-15T01:47:52;2.97;;;2.78;;
9330;SDS011;4704;50.470;12.072;2023-02-15T01:50:24;3.20;;;3.00;;
9330;SDS011;4704;50.470;12.072;2023-02-15T01:52:55;2.97;;;2.78;;
9330;SDS011;4704;50.470;12.072;2023-02-15T01:55:27;3.08;;;2.88;;
9330;SDS011;4704;50.470;12.072;2023-02-15T01:57:56;3.22;;;3.00;;
9330;SDS011;4704;50.470;12.072;2023-02-15T02:00:24;3.10;;;2.90;;
9330;SDS011;4704;50.470;12.072;2023-02-15T02:02:53;3.05;;;2.85;;
9330;SDS011;4704;50.470;12.072;2023-02-15T02:05:21;2.97;;;2.70;;
9330;SDS011;4704;50.470;12.072;2023-02-15T02:07:50;2.83;;;2.63;;
9330;SDS011;4704;50.470;12.072;2023-02-15T02:10:19;3.17;;;2.97;;
9330;SDS011;4704;50.470;12.072;2023-02-15T02:12:50;2.83;;;2.63;;
9330;SDS011;4704;50.470;12.072;2023-02-15T02:15:19;3.28;;;3.08;;
9330;SDS011;4704;50.470;12.072;2023-02-15T02:17:53;3.38;;;3.05;;
9330;SDS011;4704;50.470;12.072;2023-02-15T02:20:28;2.92;;;2.72;;
9330;SDS011;4704;50.470;12.072;2023-02-15T02:23:15;2.75;;;2.55;;
9330;SDS011;4704;50.470;12.072;2023-02-15T02:26:06;2.83;;;2.63;;
9330;SDS011;4704;50.470;12.072;2023-02-15T02:28:46;3.20;;;2.90;;
9330;SDS011;4704;50.470;12.072;2023-02-15T02:31:29;2.90;;;2.70;;
9330;SDS011;4704;50.470;12.072;2023-02-15T02:34:02;3.05;;;2.80;;
9330;SDS011;4704;50.470;12.072;2023-02-15T02:36:34;3.00;;;2.80;;
9330;SDS011;4704;50.470;12.072;2023-02-15T02:39:08;2.92;;;2.72;;
9330;SDS011;4704;50.470;12.072;2023-02-15T02:41:40;2.92;;;2.72;;
9330;SDS011;4704;50.470;12.072;2023-02-15T02:44:12;2.70;;;2.50;;
9330;SDS011;4704;50.470;12.072;2023-02-15T02:46:46;2.70;;;2.50;;
9330;SDS011;4704;50.470;12.072;2023-02-15T02:49:16;3.10;;;2.83;;
9330;SDS011;4704;50.470;12.072;2023-02-15T02:51:43;2.80;;;2.60;;
9330;SDS011;4704;50.470;12.072;2023-02-15T02:54:11;2.75;;;2.55;;
9330;SDS011;4704;50.470;12.072;2023-02-15T02:56:39;2.80;;;2.60;;
9330;SDS011;4704;50.470;12.072;2023-02-15T02:59:09;2.80;;;2.60;;
9330;SDS011;4704;50.470;12.072;2023-02-15T03:01:41;2.70;;;2.50;;
9330;SDS011;4704;50.470;12.072;2023-02-15T03:04:11;2.60;;;2.40;;
9330;SDS011;4704;50.470;12.072;2023-02-15T03:06:44;2.80;;;2.50;;
9330;SDS011;4704;50.470;12.072;2023-02-15T03:09:15;2.70;;;2.50;;
9330;SDS011;4704;50.470;12.072;2023-02-15T03:11:44;2.40;;;2.20;;
9330;SDS011;4704;50.470;12.072;2023-02-15T03:14:12;2.83;;;2.55;;
9330;SDS011;4704;50.470;12.072;2023-02-15T03:16:41;2.70;;;2.50;;
9330;SDS011;4704;50.470;12.072;2023-02-15T03:19:11;2.85;;;2.65;;
9330;SDS011;4704;50.470;12.072;2023-02-15T03:21:43;2.72;;;2.53;;
9330;SDS011;4704;50.470;12.072;2023-02-15T03:24:16;2.28;;;2.17;;
9330;SDS011;4704;50.470;12.072;2023-02-15T03:26:45;2.75;;;2.55;;
9330;SDS011;4704;50.470;12.072;2023-02-15T03:29:15;2.72;;;2.53;;
9330;SDS011;4704;50.470;12.072;2023-02-15T03:31:43;2.35;;;2.15;;
9330;SDS011;4704;50.470;12.072;2023-02-15T03:34:13;2.83;;;2.40;;
9330;SDS011;4704;50.470;12.072;2023-02-15T03:36:45;2.67;;;2.47;;
9330;SDS011;4704;50.470;12.072;2023-02-15T03:39:18;2.90;;;2.70;;
9330;SDS011;4704;50.470;12.072;2023-02-15T03:41:49;2.72;;;2.53;;
9330;SDS011;4704;50.470;12.072;2023-02-15T03:44:20;2.60;;;2.40;;
9330;SDS011;4704;50.470;12.072;2023-02-15T03:46:51;2.50;;;2.30;;
9330;SDS011;4704;50.470;12.072;2023-02-15T03:49:21;2.80;;;2.60;;
9330;SDS011;4704;50.470;12.072;2023-02-15T03:51:51;2.30;;;2.20;;
9330;SDS011;4704;50.470;12.072;2023-02-15T03:54:21;2.50;;;2.30;;
9330;SDS011;4704;50.470;12.072;2023-02-15T03:57:07;2.60;;;2.40;;
9330;SDS011;4704;50.470;12.072;2023-02-15T03:59:52;2.50;;;2.30;;
9330;SDS011;4704;50.470;12.072;2023-02-15T04:02:38;2.20;;;2.10;;
9330;SDS011;4704;50.470;12.072;2023-02-15T04:05:07;2.47;;;2.28;;
9330;SDS011;4704;50.470;12.072;2023-02-15T04:07:37;2.25;;;2.15;;
9330;SDS011;4704;50.470;12.072;2023-02-15T04:10:05;2.67;;;2.47;;
9330;SDS011;4704;50.470;12.072;2023-02-15T04:12:50;2.63;;;2.42;;
9330;SDS011;4704;50.470;12.072;2023-02-15T04:15:18;2.70;;;2.50;;
9330;SDS011;4704;50.470;12.072;2023-02-15T04:18:02;2.53;;;2.33;;
9330;SDS011;4704;50.470;12.072;2023-02-15T04:20:31;2.30;;;2.10;;
9330;SDS011;4704;50.470;12.072;2023-02-15T04:23:17;2.60;;;2.40;;
9330;SDS011;4704;50.470;12.072;2023-02-15T04:26:03;2.58;;;2.38;;
9330;SDS011;4704;50.470;12.072;2023-02-15T04:28:31;2.42;;;2.22;;
9330;SDS011;4704;50.470;12.072;2023-02-15T04:30:58;2.80;;;2.60;;
9330;SDS011;4704;50.470;12.072;2023-02-15T04:33:26;2.10;;;2.00;;
9330;SDS011;4704;50.470;12.072;2023-02-15T04:35:53;2.42;;;2.22;;
9330;SDS011;4704;50.470;12.072;2023-02-15T04:38:23;2.78;;;2.58;;
9330;SDS011;4704;50.470;12.072;2023-02-15T04:40:50;2.47;;;2.28;;
9330;SDS011;4704;50.470;12.072;2023-02-15T04:43:18;2.50;;;2.30;;
9330;SDS011;4704;50.470;12.072;2023-02-15T04:45:49;2.42;;;2.22;;
9330;SDS011;4704;50.470;12.072;2023-02-15T04:48:17;2.42;;;2.22;;
9330;SDS011;4704;50.470;12.072;2023-02-15T04:50:45;2.35;;;2.17;;
9330;SDS011;4704;50.470;12.072;2023-02-15T04:53:12;2.40;;;2.20;;
9330;SDS011;4704;50.470;12.072;2023-02-15T04:55:44;2.50;;;2.30;;
9330;SDS011;4704;50.470;12.072;2023-02-15T04:58:11;2.53;;;2.33;;
9330;SDS011;4704;50.470;12.072;2023-02-15T05:00:39;2.72;;;2.53;;
9330;SDS011;4704;50.470;12.072;2023-02-15T05:03:07;2.30;;;2.20;;
9330;SDS011;4704;50.470;12.072;2023-02-15T05:05:34;2.58;;;2.38;;
9330;SDS011;4704;50.470;12.072;2023-02-15T05:08:02;2.47;;;2.28;;
9330;SDS011;4704;50.470;12.072;2023-02-15T05:10:30;2.60;;;2.40;;
9330;SDS011;4704;50.470;12.072;2023-02-15T05:12:59;2.60;;;2.40;;
9330;SDS011;4704;50.470;12.072;2023-02-15T05:15:26;2.42;;;2.22;;
9330;SDS011;4704;50.470;12.072;2023-02-15T05:17:54;2.60;;;2.40;;
9330;SDS011;4704;50.470;12.072;2023-02-15T05:20:22;2.45;;;2.25;;
9330;SDS011;4704;50.470;12.072;2023-02-15T05:22:52;2.50;;;2.30;;
9330;SDS011;4704;50.470;12.072;2023-02-15T05:25:20;1.98;;;1.88;;
9330;SDS011;4704;50.470;12.072;2023-02-15T05:28:08;2.20;;;2.10;;
9330;SDS011;4704;50.470;12.072;2023-02-15T05:30:46;2.47;;;2.28;;
9330;SDS011;4704;50.470;12.072;2023-02-15T05:33:14;2.70;;;2.50;;
9330;SDS011;4704;50.470;12.072;2023-02-15T05:35:41;2.60;;;2.40;;
9330;SDS011;4704;50.470;12.072;2023-02-15T05:38:09;2.20;;;2.10;;
9330;SDS011;4704;50.470;12.072;2023-02-15T05:40:36;2.38;;;2.17;;
9330;SDS011;4704;50.470;12.072;2023-02-15T05:43:04;2.40;;;2.20;;
9330;SDS011;4704;50.470;12.072;2023-02-15T05:45:33;2.58;;;2.38;;
9330;SDS011;4704;50.470;12.072;2023-02-15T05:48:01;2.63;;;2.42;;
9330;SDS011;4704;50.470;12.072;2023-02-15T05:50:28;2.63;;;2.42;;
9330;SDS011;4704;50.470;12.072;2023-02-15T05:52:56;2.40;;;2.20;;
9330;SDS011;4704;50.470;12.072;2023-02-15T05:55:24;2.28;;;2.08;;
9330;SDS011;4704;50.470;12.072;2023-02-15T05:57:51;2.13;;;2.03;;
9330;SDS011;4704;50.470;12.072;2023-02-15T06:00:19;2.22;;;2.13;;
9330;SDS011;4704;50.470;12.072;2023-02-15T06:02:48;2.88;;;2.33;;
9330;SDS011;4704;50.470;12.072;2023-02-15T06:05:16;2.45;;;2.25;;
9330;SDS011;4704;50.470;12.072;2023-02-15T06:07:44;2.10;;;2.00;;
9330;SDS011;4704;50.470;12.072;2023-02-15T06:10:11;2.25;;;2.05;;
9330;SDS011;4704;50.470;12.072;2023-02-15T06:12:39;2.55;;;2.35;;
9330;SDS011;4704;50.470;12.072;2023-02-15T06:15:07;2.50;;;2.30;;
9330;SDS011;4704;50.470;12.072;2023-02-15T06:17:35;2.40;;;2.20;;
9330;SDS011;4704;50.470;12.072;2023-02-15T06:20:05;3.05;;;2.75;;
9330;SDS011;4704;50.470;12.072;2023-02-15T06:22:33;2.72;;;2.38;;
9330;SDS011;4704;50.470;12.072;2023-02-15T06:25:01;3.13;;;2.80;;
9330;SDS011;4704;50.470;12.072;2023-02-15T06:27:28;2.65;;;2.45;;
9330;SDS011;4704;50.470;12.072;2023-02-15T06:29:56;3.50;;;3.20;;
9330;SDS011;4704;50.470;12.072;2023-02-15T06:32:24;3.75;;;2.80;;
9330;SDS011;4704;50.470;12.072;2023-02-15T06:34:52;3.05;;;2.75;;
9330;SDS011;4704;50.470;12.072;2023-02-15T06:37:21;3.20;;;2.90;;
9330;SDS011;4704;50.470;12.072;2023-02-15T06:39:49;3.35;;;2.90;;
9330;SDS011;4704;50.470;12.072;2023-02-15T06:42:16;4.13;;;3.15;;
9330;SDS011;4704;50.470;12.072;2023-02-15T06:44:44;4.78;;;3.53;;
9330;SDS011;4704;50.470;12.072;2023-02-15T06:47:12;3.58;;;3.28;;
9330;SDS011;4704;50.470;12.072;2023-02-15T06:49:39;4.38;;;3.50;;
9330;SDS011;4704;50.470;12.072;2023-02-15T06:52:07;3.45;;;2.88;;
9330;SDS011;4704;50.470;12.072;2023-02-15T06:54:36;7.05;;;3.60;;
9330;SDS011;4704;50.470;12.072;2023-02-15T06:57:04;4.47;;;3.40;;
9330;SDS011;4704;50.470;12.072;2023-02-15T06:59:31;5.35;;;3.30;;
9330;SDS011;4704;50.470;12.072;2023-02-15T07:01:59;4.40;;;3.13;;
9330;SDS011;4704;50.470;12.072;2023-02-15T07:04:27;5.15;;;3.70;;
9330;SDS011;4704;50.470;12.072;2023-02-15T07:06:55;4.45;;;3.30;;
9330;SDS011;4704;50.470;12.072;2023-02-15T07:09:23;3.95;;;3.40;;
9330;SDS011;4704;50.470;12.072;2023-02-15T07:11:52;4.28;;;3.70;;
9330;SDS011;4704;50.470;12.072;2023-02-15T07:14:37;5.45;;;3.88;;
9330;SDS011;4704;50.470;12.072;2023-02-15T07:17:05;5.25;;;3.90;;
9330;SDS011;4704;50.470;12.072;2023-02-15T07:19:33;5.47;;;3.70;;
9330;SDS011;4704;50.470;12.072;2023-02-15T07:22:01;5.30;;;3.80;;
9330;SDS011;4704;50.470;12.072;2023-02-15T07:24:29;5.13;;;3.65;;
9330;SDS011;4704;50.470;12.072;2023-02-15T07:26:58;5.13;;;3.50;;
9330;SDS011;4704;50.470;12.072;2023-02-15T07:29:25;3.92;;;3.50;;
9330;SDS011;4704;50.470;12.072;2023-02-15T07:31:53;5.47;;;3.60;;
9330;SDS011;4704;50.470;12.072;2023-02-15T07:34:21;4.95;;;3.80;;
9330;SDS011;4704;50.470;12.072;2023-02-15T07:36:50;5.20;;;3.40;;
9330;SDS011;4704;50.470;12.072;2023-02-15T07:39:19;4.03;;;3.60;;
9330;SDS011;4704;50.470;12.072;2023-02-15T07:41:46;4.03;;;3.35;;
9330;SDS011;4704;50.470;12.072;2023-02-15T07:44:15;4.50;;;3.80;;
9330;SDS011;4704;50.470;12.072;2023-02-15T07:46:43;7.05;;;4.25;;
9330;SDS011;4704;50.470;12.072;2023-02-15T07:49:11;4.40;;;3.63;;
9330;SDS011;4704;50.470;12.072;2023-02-15T07:51:39;5.65;;;3.67;;
9330;SDS011;4704;50.470;12.072;2023-02-15T07:54:07;5.43;;;3.78;;
9330;SDS011;4704;50.470;12.072;2023-02-15T07:56:35;4.15;;;3.75;;
9330;SDS011;4704;50.470;12.072;2023-02-15T07:59:03;5.38;;;4.05;;
9330;SDS011;4704;50.470;12.072;2023-02-15T08:01:32;5.18;;;3.75;;
9330;SDS011;4704;50.470;12.072;2023-02-15T08:04:01;4.53;;;3.97;;
9330;SDS011;4704;50.470;12.072;2023-02-15T08:06:31;5.63;;;3.50;;
9330;SDS011;4704;50.470;12.072;2023-02-15T08:08:59;5.30;;;3.65;;
9330;SDS011;4704;50.470;12.072;2023-02-15T08:11:28;4.40;;;3.63;;
9330;SDS011;4704;50.470;12.072;2023-02-15T08:13:58;5.57;;;3.90;;
9330;SDS011;4704;50.470;12.072;2023-02-15T08:16:30;5.53;;;3.97;;
9330;SDS011;4704;50.470;12.072;2023-02-15T08:19:00;4.15;;;3.30;;
9330;SDS011;4704;50.470;12.072;2023-02-15T08:21:28;4.80;;;3.60;;
9330;SDS011;4704;50.470;12.072;2023-02-15T08:23:56;5.50;;;4.00;;
9330;SDS011;4704;50.470;12.072;2023-02-15T08:26:24;3.83;;;3.45;;
9330;SDS011;4704;50.470;12.072;2023-02-15T08:28:52;4.50;;;3.75;;
9330;SDS011;4704;50.470;12.072;2023-02-15T08:31:20;4.95;;;3.47;;
9330;SDS011;4704;50.470;12.072;2023-02-15T08:33:49;4.03;;;3.45;;
9330;SDS011;4704;50.470;12.072;2023-02-15T08:36:19;4.00;;;3.40;;
9330;SDS011;4704;50.470;12.072;2023-02-15T08:38:47;5.97;;;3.92;;
9330;SDS011;4704;50.470;12.072;2023-02-15T08:41:16;4.22;;;3.45;;
9330;SDS011;4704;50.470;12.072;2023-02-15T08:43:44;3.72;;;3.20;;
9330;SDS011;4704;50.470;12.072;2023-02-15T08:46:12;4.40;;;3.40;;
9330;SDS011;4704;50.470;12.072;2023-02-15T08:48:40;4.93;;;3.60;;
9330;SDS011;4704;50.470;12.072;2023-02-15T08:51:08;4.57;;;3.35;;
9330;SDS011;4704;50.470;12.072;2023-02-15T08:53:39;4.28;;;3.33;;
9330;SDS011;4704;50.470;12.072;2023-02-15T08:56:07;3.95;;;3.42;;
9330;SDS011;4704;50.470;12.072;2023-02-15T08:58:36;4.43;;;3.40;;
9330;SDS011;4704;50.470;12.072;2023-02-15T09:01:08;4.82;;;3.35;;
9330;SDS011;4704;50.470;12.072;2023-02-15T09:03:35;4.25;;;3.40;;
9330;SDS011;4704;50.470;12.072;2023-02-15T09:06:04;5.47;;;3.50;;
9330;SDS011;4704;50.470;12.072;2023-02-15T09:08:32;3.92;;;3.50;;
9330;SDS011;4704;50.470;12.072;2023-02-15T09:11:08;4.63;;;3.42;;
9330;SDS011;4704;50.470;12.072;2023-02-15T09:13:36;3.83;;;3.35;;
9330;SDS011;4704;50.470;12.072;2023-02-15T09:16:05;4.43;;;3.15;;
9330;SDS011;4704;50.470;12.072;2023-02-15T09:18:35;4.07;;;3.40;;
9330;SDS011;4704;50.470;12.072;2023-02-15T09:21:06;4.72;;;3.30;;
9330;SDS011;4704;50.470;12.072;2023-02-15T09:23:35;4.13;;;2.83;;
9330;SDS011;4704;50.470;12.072;2023-02-15T09:26:03;4.05;;;3.03;;
9330;SDS011;4704;50.470;12.072;2023-02-15T09:28:32;5.28;;;3.40;;
9330;SDS011;4704;50.470;12.072;2023-02-15T09:31:07;5.65;;;3.75;;
9330;SDS011;4704;50.470;12.072;2023-02-15T09:33:35;3.55;;;3.10;;
9330;SDS011;4704;50.470;12.072;2023-02-15T09:36:03;4.32;;;3.60;;
9330;SDS011;4704;50.470;12.072;2023-02-15T09:38:31;4.45;;;3.35;;
9330;SDS011;4704;50.470;12.072;2023-02-15T09:41:03;3.75;;;3.33;;
9330;SDS011;4704;50.470;12.072;2023-02-15T09:43:35;3.67;;;2.97;;
9330;SDS011;4704;50.470;12.072;2023-02-15T09:46:12;4.57;;;3.20;;
9330;SDS011;4704;50.470;12.072;2023-02-15T09:48:47;4.35;;;3.10;;
9330;SDS011;4704;50.470;12.072;2023-02-15T09:54:03;2.85;;;2.60;;
9330;SDS011;4704;50.470;12.072;2023-02-15T09:56:34;3.72;;;3.25;;
9330;SDS011;4704;50.470;12.072;2023-02-15T09:59:08;4.07;;;2.85;;
9330;SDS011;4704;50.470;12.072;2023-02-15T10:01:40;3.38;;;3.08;;
9330;SDS011;4704;50.470;12.072;2023-02-15T10:04:16;4.05;;;3.00;;
9330;SDS011;4704;50.470;12.072;2023-02-15T10:06:48;3.13;;;2.80;;
9330;SDS011;4704;50.470;12.072;2023-02-15T10:09:30;4.28;;;2.90;;
9330;SDS011;4704;50.470;12.072;2023-02-15T10:12:12;4.45;;;2.92;;
9330;SDS011;4704;50.470;12.072;2023-02-15T10:17:37;4.45;;;2.95;;
9330;SDS011;4704;50.470;12.072;2023-02-15T10:20:09;4.35;;;2.97;;
9330;SDS011;4704;50.470;12.072;2023-02-15T10:22:43;5.00;;;2.80;;
9330;SDS011;4704;50.470;12.072;2023-02-15T10:25:18;4.03;;;3.08;;
9330;SDS011;4704;50.470;12.072;2023-02-15T10:27:48;4.47;;;2.88;;
9330;SDS011;4704;50.470;12.072;2023-02-15T10:30:17;3.60;;;3.08;;
9330;SDS011;4704;50.470;12.072;2023-02-15T10:32:52;3.47;;;2.88;;
9330;SDS011;4704;50.470;12.072;2023-02-15T10:35:22;3.97;;;2.70;;
9330;SDS011;4704;50.470;12.072;2023-02-15T10:37:56;4.07;;;2.83;;
9330;SDS011;4704;50.470;12.072;2023-02-15T10:40:31;3.95;;;2.88;;
9330;SDS011;4704;50.470;12.072;2023-02-15T10:43:08;4.03;;;3.17;;
9330;SDS011;4704;50.470;12.072;2023-02-15T10:45:40;4.35;;;2.70;;
9330;SDS011;4704;50.470;12.072;2023-02-15T10:48:24;3.65;;;3.08;;
9330;SDS011;4704;50.470;12.072;2023-02-15T10:50:55;2.83;;;2.38;;
9330;SDS011;4704;50.470;12.072;2023-02-15T10:53:29;3.85;;;2.72;;
9330;SDS011;4704;50.470;12.072;2023-02-15T10:56:03;3.00;;;2.50;;
9330;SDS011;4704;50.470;12.072;2023-02-15T10:58:38;3.10;;;2.60;;
9330;SDS011;4704;50.470;12.072;2023-02-15T11:01:11;3.40;;;2.42;;
9330;SDS011;4704;50.470;12.072;2023-02-15T11:03:47;3.28;;;2.65;;
9330;SDS011;4704;50.470;12.072;2023-02-15T11:06:18;3.47;;;2.67;;
9330;SDS011;4704;50.470;12.072;2023-02-15T11:08:48;5.35;;;2.50;;
9330;SDS011;4704;50.470;12.072;2023-02-15T11:11:19;2.60;;;2.28;;
9330;SDS011;4704;50.470;12.072;2023-02-15T11:13:49;3.28;;;2.58;;
9330;SDS011;4704;50.470;12.072;2023-02-15T11:16:20;2.38;;;2.17;;
9330;SDS011;4704;50.470;12.072;2023-02-15T11:18:51;2.47;;;2.28;;
9330;SDS011;4704;50.470;12.072;2023-02-15T11:21:21;3.05;;;2.40;;
9330;SDS011;4704;50.470;12.072;2023-02-15T11:23:49;4.53;;;2.50;;
9330;SDS011;4704;50.470;12.072;2023-02-15T11:26:19;2.40;;;2.20;;
9330;SDS011;4704;50.470;12.072;2023-02-15T11:28:51;2.50;;;2.10;;
9330;SDS011;4704;50.470;12.072;2023-02-15T11:31:21;2.58;;;2.38;;
9330;SDS011;4704;50.470;12.072;2023-02-15T11:33:49;2.10;;;2.00;;
9330;SDS011;4704;50.470;12.072;2023-02-15T11:36:20;2.40;;;2.20;;
9330;SDS011;4704;50.470;12.072;2023-02-15T11:38:49;2.33;;;2.00;;
9330;SDS011;4704;50.470;12.072;2023-02-15T11:41:18;4.05;;;2.33;;
9330;SDS011;4704;50.470;12.072;2023-02-15T11:43:50;2.25;;;1.95;;
9330;SDS011;4704;50.470;12.072;2023-02-15T11:46:21;2.28;;;2.08;;
9330;SDS011;4704;50.470;12.072;2023-02-15T11:48:49;2.35;;;2.15;;
9330;SDS011;4704;50.470;12.072;2023-02-15T11:51:18;3.28;;;1.90;;
9330;SDS011;4704;50.470;12.072;2023-02-15T11:53:48;2.28;;;2.00;;
9330;SDS011;4704;50.470;12.072;2023-02-15T11:56:16;2.47;;;2.10;;
9330;SDS011;4704;50.470;12.072;2023-02-15T11:58:45;2.95;;;2.10;;
9330;SDS011;4704;50.470;12.072;2023-02-15T12:01:16;2.13;;;1.92;;
9330;SDS011;4704;50.470;12.072;2023-02-15T12:03:46;2.58;;;2.05;;
9330;SDS011;4704;50.470;12.072;2023-02-15T12:06:16;2.10;;;1.90;;
9330;SDS011;4704;50.470;12.072;2023-02-15T12:08:46;2.00;;;1.80;;
9330;SDS011;4704;50.470;12.072;2023-02-15T12:11:19;2.30;;;2.10;;
9330;SDS011;4704;50.470;12.072;2023-02-15T12:13:53;1.80;;;1.70;;
9330;SDS011;4704;50.470;12.072;2023-02-15T12:16:21;2.13;;;1.92;;
9330;SDS011;4704;50.470;12.072;2023-02-15T12:18:49;2.28;;;2.08;;
9330;SDS011;4704;50.470;12.072;2023-02-15T12:21:24;2.22;;;1.85;;
9330;SDS011;4704;50.470;12.072;2023-02-15T12:23:52;2.10;;;1.90;;
9330;SDS011;4704;50.470;12.072;2023-02-15T12:26:26;2.83;;;2.03;;
9330;SDS011;4704;50.470;12.072;2023-02-15T12:28:55;2.10;;;1.90;;
9330;SDS011;4704;50.470;12.072;2023-02-15T12:31:27;2.33;;;1.90;;
9330;SDS011;4704;50.470;12.072;2023-02-15T12:33:55;2.10;;;1.70;;
9330;SDS011;4704;50.470;12.072;2023-02-15T12:36:24;1.85;;;1.75;;
9330;SDS011;4704;50.470;12.072;2023-02-15T12:39:04;2.00;;;1.90;;
9330;SDS011;4704;50.470;12.072;2023-02-15T12:41:33;2.30;;;1.98;;
9330;SDS011;4704;50.470;12.072;2023-02-15T12:44:05;1.80;;;1.70;;
9330;SDS011;4704;50.470;12.072;2023-02-15T12:46:33;1.95;;;1.67;;
9330;SDS011;4704;50.470;12.072;2023-02-15T12:49:10;2.08;;;1.75;;
9330;SDS011;4704;50.470;12.072;2023-02-15T12:51:43;2.00;;;1.80;;
9330;SDS011;4704;50.470;12.072;2023-02-15T12:54:20;1.70;;;1.60;;
9330;SDS011;4704;50.470;12.072;2023-02-15T12:56:53;1.95;;;1.75;;
9330;SDS011;4704;50.470;12.072;2023-02-15T12:59:22;1.85;;;1.70;;
9330;SDS011;4704;50.470;12.072;2023-02-15T13:01:50;1.70;;;1.60;;
9330;SDS011;4704;50.470;12.072;2023-02-15T13:04:21;2.42;;;1.90;;
9330;SDS011;4704;50.470;12.072;2023-02-15T13:06:51;2.10;;;1.80;;
9330;SDS011;4704;50.470;12.072;2023-02-15T13:09:20;1.90;;;1.80;;
9330;SDS011;4704;50.470;12.072;2023-02-15T13:11:48;2.00;;;1.85;;
9330;SDS011;4704;50.470;12.072;2023-02-15T13:14:18;1.60;;;1.50;;
9330;SDS011;4704;50.470;12.072;2023-02-15T13:16:47;1.73;;;1.63;;
9330;SDS011;4704;50.470;12.072;2023-02-15T13:19:16;2.25;;;2.05;;
9330;SDS011;4704;50.470;12.072;2023-02-15T13:21:44;1.88;;;1.73;;
9330;SDS011;4704;50.470;12.072;2023-02-15T13:24:15;1.50;;;1.40;;
9330;SDS011;4704;50.470;12.072;2023-02-15T13:26:45;2.05;;;1.58;;
9330;SDS011;4704;50.470;12.072;2023-02-15T13:29:15;1.73;;;1.60;;
9330;SDS011;4704;50.470;12.072;2023-02-15T13:31:46;1.80;;;1.70;;
9330;SDS011;4704;50.470;12.072;2023-02-15T13:34:15;1.60;;;1.50;;
9330;SDS011;4704;50.470;12.072;2023-02-15T13:36:47;1.75;;;1.65;;
9330;SDS011;4704;50.470;12.072;2023-02-15T13:39:19;1.67;;;1.58;;
9330;SDS011;4704;50.470;12.072;2023-02-15T13:41:50;1.83;;;1.73;;
9330;SDS011;4704;50.470;12.072;2023-02-15T13:44:23;1.73;;;1.42;;
9330;SDS011;4704;50.470;12.072;2023-02-15T13:46:58;1.45;;;1.35;;
9330;SDS011;4704;50.470;12.072;2023-02-15T13:49:36;1.50;;;1.40;;
9330;SDS011;4704;50.470;12.072;2023-02-15T13:52:08;2.03;;;1.83;;
9330;SDS011;4704;50.470;12.072;2023-02-15T13:54:47;1.73;;;1.63;;
9330;SDS011;4704;50.470;12.072;2023-02-15T13:57:19;1.70;;;1.60;;
9330;SDS011;4704;50.470;12.072;2023-02-15T13:59:58;1.60;;;1.42;;
9330;SDS011;4704;50.470;12.072;2023-02-15T14:02:43;2.33;;;1.88;;
9330;SDS011;4704;50.470;12.072;2023-02-15T14:05:28;1.63;;;1.52;;
9330;SDS011;4704;50.470;12.072;2023-02-15T14:08:00;1.65;;;1.55;;
9330;SDS011;4704;50.470;12.072;2023-02-15T14:10:43;1.70;;;1.60;;
9330;SDS011;4704;50.470;12.072;2023-02-15T14:13:35;1.75;;;1.65;;
9330;SDS011;4704;50.470;12.072;2023-02-15T14:16:10;1.50;;;1.40;;
9330;SDS011;4704;50.470;12.072;2023-02-15T14:18:42;1.90;;;1.70;;
9330;SDS011;4704;50.470;12.072;2023-02-15T14:21:13;1.63;;;1.52;;
9330;SDS011;4704;50.470;12.072;2023-02-15T14:23:45;1.55;;;1.45;;
9330;SDS011;4704;50.470;12.072;2023-02-15T14:26:16;1.90;;;1.70;;
9330;SDS011;4704;50.470;12.072;2023-02-15T14:28:48;1.50;;;1.40;;
9330;SDS011;4704;50.470;12.072;2023-02-15T14:31:19;1.65;;;1.55;;
9330;SDS011;4704;50.470;12.072;2023-02-15T14:33:52;1.60;;;1.50;;
9330;SDS011;4704;50.470;12.072;2023-02-15T14:36:21;1.67;;;1.58;;
9330;SDS011;4704;50.470;12.072;2023-02-15T14:39:01;1.73;;;1.63;;
9330;SDS011;4704;50.470;12.072;2023-02-15T14:41:31;1.67;;;1.58;;
9330;SDS011;4704;50.470;12.072;2023-02-15T14:44:04;1.73;;;1.63;;
9330;SDS011;4704;50.470;12.072;2023-02-15T14:46:36;2.30;;;1.50;;
9330;SDS011;4704;50.470;12.072;2023-02-15T14:49:09;1.50;;;1.40;;
9330;SDS011;4704;50.470;12.072;2023-02-15T14:52:00;1.60;;;1.50;;
9330;SDS011;4704;50.470;12.072;2023-02-15T14:57:21;1.42;;;1.30;;
9330;SDS011;4704;50.470;12.072;2023-02-15T14:59:52;1.90;;;1.80;;
9330;SDS011;4704;50.470;12.072;2023-02-15T15:02:23;1.92;;;1.40;;
9330;SDS011;4704;50.470;12.072;2023-02-15T15:04:56;1.77;;;1.67;;
9330;SDS011;4704;50.470;12.072;2023-02-15T15:07:26;1.60;;;1.50;;
9330;SDS011;4704;50.470;12.072;2023-02-15T15:09:58;1.40;;;1.30;;
9330;SDS011;4704;50.470;12.072;2023-02-15T15:12:39;1.52;;;1.23;;
9330;SDS011;4704;50.470;12.072;2023-02-15T15:15:09;1.42;;;1.33;;
9330;SDS011;4704;50.470;12.072;2023-02-15T15:18:00;1.55;;;1.45;;
9330;SDS011;4704;50.470;12.072;2023-02-15T15:20:46;1.48;;;1.38;;
9330;SDS011;4704;50.470;12.072;2023-02-15T15:26:20;1.48;;;1.38;;
9330;SDS011;4704;50.470;12.072;2023-02-15T15:28:55;1.40;;;1.30;;
9330;SDS011;4704;50.470;12.072;2023-02-15T15:31:24;1.70;;;1.60;;
9330;SDS011;4704;50.470;12.072;2023-02-15T15:42:19;1.65;;;1.42;;